createdAt,value
2022-08-22T05:07:20.480Z,25.58
2022-08-22T05:09:52.744Z,23.70
2022-08-22T05:12:31.815Z,25.00
2022-08-22T05:15:22.959Z,23.90
2022-08-22T05:17:51.768Z,23.67
2022-08-22T05:20:22.749Z,23.90
2022-08-22T05:22:52.885Z,25.27
2022-08-22T05:25:22.592Z,24.25
2022-08-22T05:27:56.330Z,25.38
2022-08-22T05:30:28.612Z,24.83
2022-08-22T05:32:59.314Z,23.95
2022-08-22T05:35:35.426Z,24.13
2022-08-22T05:38:03.514Z,24.20
2022-08-22T05:40:31.455Z,23.80
2022-08-22T05:42:58.437Z,22.88
2022-08-22T05:45:26.461Z,23.50
2022-08-22T05:47:58.986Z,22.80
2022-08-22T05:50:36.833Z,24.40
2022-08-22T05:53:14.456Z,23.27
2022-08-22T05:55:53.059Z,22.90
2022-08-22T05:58:31.770Z,22.15
2022-08-22T06:01:21.376Z,22.23
2022-08-22T06:04:04.634Z,21.60
2022-08-22T06:06:52.540Z,21.88
2022-08-22T06:09:37.920Z,21.40
2022-08-22T06:12:22.808Z,21.63
2022-08-22T06:15:20.773Z,21.10
2022-08-22T06:17:49.959Z,20.60
2022-08-22T06:20:26.009Z,20.40
2022-08-22T06:22:57.783Z,20.10
2022-08-22T06:25:36.015Z,20.02
2022-08-22T06:28:08.737Z,20.07
2022-08-22T06:30:36.904Z,18.92
2022-08-22T06:33:07.552Z,18.00
2022-08-22T06:36:03.498Z,17.63
2022-08-22T06:38:33.485Z,16.92
2022-08-22T06:41:05.608Z,17.20
2022-08-22T06:43:43.201Z,16.58
2022-08-22T06:46:11.127Z,16.08
2022-08-22T06:48:38.190Z,16.65
2022-08-22T06:51:07.005Z,16.23
2022-08-22T06:53:38.216Z,15.80
2022-08-22T06:56:13.152Z,15.82
2022-08-22T06:58:44.034Z,15.40
2022-08-22T07:01:21.555Z,15.07
2022-08-22T07:03:53.547Z,15.32
2022-08-22T07:06:34.745Z,14.70
2022-08-22T07:09:05.542Z,14.50
2022-08-22T07:11:37.359Z,14.93
2022-08-22T07:14:06.958Z,12.85
2022-08-22T07:16:40.082Z,13.93
2022-08-22T07:19:06.876Z,13.57
2022-08-22T07:21:47.366Z,12.23
2022-08-22T07:24:17.152Z,11.55
2022-08-22T07:26:56.977Z,13.63
2022-08-22T07:29:49.242Z,13.48
2022-08-22T07:32:19.825Z,12.90
2022-08-22T07:35:13.046Z,11.40
2022-08-22T07:37:48.565Z,14.10
2022-08-22T07:40:24.165Z,12.68
2022-08-22T07:43:08.874Z,17.63
2022-08-22T07:45:41.063Z,11.77
2022-08-22T07:48:30.523Z,14.82
2022-08-22T07:51:01.045Z,12.63
2022-08-22T07:53:30.288Z,12.63
2022-08-22T07:55:57.862Z,16.58
2022-08-22T07:58:27.191Z,14.00
2022-08-22T08:00:54.403Z,11.80
2022-08-22T08:03:22.321Z,12.23
2022-08-22T08:05:49.121Z,12.27
2022-08-22T08:08:20.954Z,13.45
2022-08-22T08:10:48.862Z,11.57
2022-08-22T08:13:23.126Z,12.60
2022-08-22T08:15:50.540Z,11.98
2022-08-22T08:18:21.847Z,12.93
2022-08-22T08:20:59.354Z,13.90
2022-08-22T08:23:29.334Z,13.80
2022-08-22T08:26:03.325Z,13.38
2022-08-22T08:28:36.059Z,12.63
2022-08-22T08:31:26.877Z,13.35
2022-08-22T08:34:05.883Z,13.20
2022-08-22T08:36:44.473Z,12.87
2022-08-22T08:39:24.402Z,17.88
2022-08-22T08:42:00.114Z,19.45
2022-08-22T08:44:37.232Z,15.73
2022-08-22T08:47:09.745Z,15.90
2022-08-22T08:49:50.579Z,16.57
2022-08-22T08:52:52.244Z,14.07
2022-08-22T08:55:41.216Z,14.80
2022-08-22T08:58:10.978Z,17.85
2022-08-22T09:01:14.054Z,14.25
2022-08-22T09:03:51.420Z,15.87
2022-08-22T09:06:50.660Z,13.75
2022-08-22T09:09:25.689Z,16.30
2022-08-22T09:12:13.748Z,14.38
2022-08-22T09:14:58.901Z,13.65
2022-08-22T09:17:50.585Z,17.53
2022-08-22T09:20:46.296Z,14.05
2022-08-22T09:23:37.757Z,12.98
2022-08-22T09:26:12.871Z,14.82
2022-08-22T09:28:54.614Z,14.65
2022-08-22T09:31:47.502Z,14.07
2022-08-22T09:34:37.151Z,16.77
2022-08-22T09:37:22.619Z,14.88
2022-08-22T09:43:13.067Z,16.77
2022-08-22T09:46:11.154Z,15.80
2022-08-22T09:49:16.574Z,17.80
2022-08-22T09:51:46.027Z,15.25
2022-08-22T09:54:23.015Z,16.42
2022-08-22T09:57:36.210Z,17.45
2022-08-22T10:00:05.923Z,14.90
2022-08-22T10:02:43.579Z,17.23
2022-08-22T10:05:40.981Z,14.63
2022-08-22T10:08:05.275Z,13.38
2022-08-22T10:10:38.135Z,12.65
2022-08-22T10:13:31.341Z,14.90
2022-08-22T10:16:39.569Z,13.48
2022-08-22T10:19:10.209Z,12.60
2022-08-22T10:22:02.402Z,15.82
2022-08-22T10:24:47.156Z,11.73
2022-08-22T10:27:18.211Z,10.97
2022-08-22T10:29:57.581Z,9.52
2022-08-22T10:32:33.439Z,9.95
2022-08-22T10:35:13.997Z,10.13
2022-08-22T10:37:50.296Z,12.43
2022-08-22T10:40:41.398Z,12.47
2022-08-22T10:43:30.864Z,10.85
2022-08-22T10:46:04.362Z,10.90
2022-08-22T10:48:36.313Z,11.10
2022-08-22T10:51:16.566Z,10.90
2022-08-22T10:54:11.111Z,10.63
2022-08-22T10:56:46.415Z,13.23
2022-08-22T10:59:40.877Z,12.07
2022-08-22T11:02:10.294Z,12.98
2022-08-22T11:05:18.902Z,10.40
2022-08-22T11:08:10.242Z,12.40
2022-08-22T11:11:11.409Z,10.80
2022-08-22T11:13:43.445Z,10.05
2022-08-22T11:16:36.795Z,11.43
2022-08-22T11:19:22.826Z,10.13
2022-08-22T11:22:15.230Z,10.67
2022-08-22T11:25:12.614Z,11.98
2022-08-22T11:27:54.267Z,9.25
2022-08-22T11:30:36.361Z,10.05
2022-08-22T11:33:46.700Z,13.55
2022-08-22T11:36:34.833Z,9.30
2022-08-22T11:39:34.623Z,10.50
2022-08-22T11:42:09.493Z,8.50
2022-08-22T11:44:57.213Z,10.05
2022-08-22T11:47:28.920Z,10.02
2022-08-22T11:50:11.486Z,9.60
2022-08-22T11:53:01.573Z,12.23
2022-08-22T11:55:47.354Z,9.27
2022-08-22T11:58:29.129Z,12.00
2022-08-22T12:00:58.773Z,9.95
2022-08-22T12:03:58.072Z,11.60
2022-08-22T12:06:31.925Z,11.00
2022-08-22T12:09:36.434Z,9.55
2022-08-22T12:19:33.989Z,9.50
2022-08-22T12:22:38.585Z,16.85
2022-08-22T12:25:49.596Z,11.13
2022-08-22T12:28:38.853Z,9.88
2022-08-22T12:31:20.715Z,9.90
2022-08-22T12:33:56.194Z,11.60
2022-08-22T12:36:33.790Z,14.90
2022-08-22T12:39:00.687Z,11.65
2022-08-22T12:42:07.633Z,16.65
2022-08-22T12:45:12.042Z,12.82
2022-08-22T12:48:12.565Z,11.50
2022-08-22T12:50:43.750Z,11.57
2022-08-22T12:53:23.552Z,10.27
2022-08-22T12:56:14.458Z,11.68
2022-08-22T12:58:51.182Z,11.77
2022-08-22T13:01:18.621Z,13.13
2022-08-22T13:03:57.721Z,12.68
2022-08-22T13:06:36.469Z,12.65
2022-08-22T13:09:30.871Z,14.48
2022-08-22T13:12:26.295Z,12.90
2022-08-22T13:15:16.265Z,13.47
2022-08-22T13:17:46.143Z,13.50
2022-08-22T13:20:26.806Z,13.30
2022-08-22T13:22:54.504Z,14.13
2022-08-22T13:25:26.006Z,13.00
2022-08-22T13:27:59.244Z,9.83
2022-08-22T13:30:33.215Z,10.40
2022-08-22T13:33:09.984Z,10.65
2022-08-22T13:35:51.685Z,14.45
2022-08-22T13:38:51.751Z,9.82
2022-08-22T13:41:22.925Z,11.40
2022-08-22T13:43:57.809Z,11.63
2022-08-22T13:46:30.072Z,11.57
2022-08-22T13:49:01.154Z,13.65
2022-08-22T13:51:41.021Z,11.23
2022-08-22T13:54:10.853Z,11.90
2022-08-22T13:56:53.537Z,10.45
2022-08-22T13:59:59.447Z,11.63
2022-08-22T14:02:56.384Z,13.52
2022-08-22T14:05:30.218Z,11.68
2022-08-22T14:08:25.857Z,11.73
2022-08-22T14:11:06.787Z,12.00
2022-08-22T14:13:57.581Z,10.23
2022-08-22T14:16:28.561Z,11.02
2022-08-22T14:19:06.270Z,14.18
2022-08-22T14:21:46.232Z,10.57
2022-08-22T14:24:47.737Z,12.98
2022-08-22T14:27:32.720Z,9.35
2022-08-22T14:30:04.915Z,10.07
2022-08-22T14:32:43.239Z,7.90
2022-08-22T14:35:21.439Z,6.10
2022-08-22T14:37:54.075Z,7.20
2022-08-22T14:40:25.403Z,8.82
2022-08-22T14:43:33.806Z,7.82
2022-08-22T14:46:05.993Z,6.82
2022-08-22T14:48:47.293Z,4.97
2022-08-22T14:51:23.381Z,5.55
2022-08-22T14:53:50.486Z,6.25
2022-08-22T14:56:24.150Z,6.93
2022-08-22T14:58:56.657Z,6.32
2022-08-22T15:01:26.834Z,7.03
2022-08-22T15:04:04.463Z,8.93
2022-08-22T15:06:48.151Z,7.15
2022-08-22T15:09:44.101Z,6.03
2022-08-22T15:12:30.664Z,7.40
2022-08-22T15:15:01.604Z,5.87
2022-08-22T15:17:51.038Z,5.40
2022-08-22T15:20:36.428Z,5.88
2022-08-22T15:23:20.828Z,5.93
2022-08-22T15:26:07.292Z,6.88
2022-08-22T15:28:52.706Z,5.80
2022-08-22T15:31:20.201Z,7.35
2022-08-22T15:33:47.921Z,7.65
2022-08-22T15:36:21.901Z,8.02
2022-08-22T15:38:51.630Z,5.63
2022-08-22T15:41:40.558Z,7.60
2022-08-22T15:44:37.421Z,6.20
2022-08-22T15:47:27.754Z,6.35
2022-08-22T15:50:05.723Z,6.65
2022-08-22T15:52:35.453Z,6.60
2022-08-22T15:55:16.305Z,7.93
2022-08-22T15:57:51.066Z,8.23
2022-08-22T16:00:29.705Z,7.03
2022-08-22T16:03:10.921Z,7.30
2022-08-22T16:05:46.682Z,7.95
2022-08-22T16:08:36.857Z,7.43
2022-08-22T16:11:03.309Z,7.50
2022-08-22T16:13:29.816Z,7.53
2022-08-22T16:16:05.352Z,8.45
2022-08-22T16:18:35.003Z,7.53
2022-08-22T16:21:05.377Z,7.33
2022-08-22T16:23:50.098Z,7.57
2022-08-22T16:26:31.785Z,7.35
2022-08-22T16:29:13.673Z,7.70
2022-08-22T16:31:43.856Z,7.90
2022-08-22T16:34:16.578Z,8.27
2022-08-22T16:36:54.951Z,8.27
2022-08-22T16:39:21.407Z,9.20
2022-08-22T16:41:49.005Z,8.13
2022-08-22T16:44:30.598Z,8.30
2022-08-22T16:47:18.204Z,7.90
2022-08-22T16:49:50.693Z,7.60
2022-08-22T16:52:23.264Z,8.00
2022-08-22T16:54:55.666Z,7.85
2022-08-22T16:57:54.474Z,7.80
2022-08-22T17:00:52.182Z,8.03
2022-08-22T17:03:56.254Z,8.55
2022-08-22T17:06:32.136Z,8.25
2022-08-22T17:09:12.916Z,9.02
2022-08-22T17:12:04.181Z,8.70
2022-08-22T17:15:01.654Z,9.60
2022-08-22T17:18:10.798Z,8.77
2022-08-22T17:21:16.085Z,9.18
2022-08-22T17:24:04.550Z,9.50
2022-08-22T17:26:54.311Z,8.85
2022-08-22T17:29:33.108Z,8.80
2022-08-22T17:32:18.452Z,9.10
2022-08-22T17:35:01.251Z,9.55
2022-08-22T17:37:39.875Z,9.70
2022-08-22T17:40:28.166Z,9.88
2022-08-22T17:43:03.847Z,9.87
2022-08-22T17:45:33.625Z,10.00
2022-08-22T17:48:21.174Z,9.80
2022-08-22T17:50:57.131Z,10.43
2022-08-22T17:53:49.234Z,10.60
2022-08-22T17:56:40.959Z,10.70
2022-08-22T17:59:24.845Z,10.25
2022-08-22T18:02:19.098Z,10.20
2022-08-22T18:05:00.291Z,8.70
2022-08-22T18:07:40.839Z,9.20
2022-08-22T18:10:28.039Z,8.73
2022-08-22T18:12:57.501Z,8.98
2022-08-22T18:15:34.811Z,8.80
2022-08-22T18:18:13.356Z,8.82
2022-08-22T18:21:14.905Z,9.10
2022-08-22T18:24:14.286Z,9.07
2022-08-22T18:26:58.653Z,10.07
2022-08-22T18:29:41.937Z,9.20
2022-08-22T18:32:21.499Z,8.85
2022-08-22T18:34:56.937Z,8.77
2022-08-22T18:37:35.760Z,9.20
2022-08-22T18:40:08.594Z,9.00
2022-08-22T18:42:42.014Z,9.05
2022-08-22T18:45:44.185Z,9.25
